createdAt,value
2022-09-01T00:00:02.947Z,99.90
2022-09-01T00:02:31.396Z,99.90
2022-09-01T00:04:59.422Z,99.90
2022-09-01T00:07:30.078Z,99.90
2022-09-01T00:09:58.499Z,99.90
2022-09-01T00:12:26.388Z,99.90
2022-09-01T00:14:54.858Z,99.90
2022-09-01T00:17:24.055Z,99.90
2022-09-01T00:19:52.124Z,99.90
2022-09-01T00:22:19.997Z,99.90
2022-09-01T00:24:47.854Z,99.90
2022-09-01T00:27:15.802Z,99.90
2022-09-01T00:29:44.102Z,99.90
2022-09-01T00:32:12.546Z,99.90
2022-09-01T00:34:41.859Z,99.90
2022-09-01T00:37:09.811Z,99.90
2022-09-01T00:39:37.638Z,99.90
2022-09-01T00:42:06.069Z,99.90
2022-09-01T00:44:34.290Z,99.90
2022-09-01T00:47:02.330Z,99.90
2022-09-01T00:49:34.999Z,99.90
2022-09-01T00:52:08.348Z,99.90
2022-09-01T00:54:44.497Z,99.90
2022-09-01T00:57:13.875Z,99.90
2022-09-01T00:59:48.204Z,99.90
2022-09-01T01:02:16.817Z,99.90
2022-09-01T01:04:46.248Z,99.90
2022-09-01T01:07:17.026Z,99.90
2022-09-01T01:09:47.050Z,99.90
2022-09-01T01:12:18.504Z,99.90
2022-09-01T01:14:47.966Z,99.90
2022-09-01T01:17:15.822Z,99.90
2022-09-01T01:20:04.402Z,99.90
2022-09-01T01:23:00.311Z,99.90
2022-09-01T01:25:30.388Z,99.90
2022-09-01T01:28:06.876Z,99.90
2022-09-01T01:30:35.455Z,99.90
2022-09-01T01:33:03.900Z,99.90
2022-09-01T01:35:33.720Z,99.90
2022-09-01T01:38:03.137Z,99.90
2022-09-01T01:40:32.328Z,99.90
2022-09-01T01:43:01.962Z,99.90
2022-09-01T01:45:30.788Z,99.90
2022-09-01T01:47:59.007Z,99.90
2022-09-01T01:50:35.644Z,99.90
2022-09-01T01:53:11.128Z,99.90
2022-09-01T01:55:41.730Z,99.90
2022-09-01T01:58:12.014Z,99.90
2022-09-01T02:00:42.845Z,99.90
2022-09-01T02:03:12.725Z,99.90
2022-09-01T02:05:41.251Z,99.90
2022-09-01T02:08:10.950Z,99.90
2022-09-01T02:10:44.042Z,99.90
2022-09-01T02:13:16.413Z,99.90
2022-09-01T02:15:47.906Z,99.90
2022-09-01T02:18:19.210Z,99.90
2022-09-01T02:20:49.346Z,99.90
2022-09-01T02:23:20.194Z,99.90
2022-09-01T02:26:14.457Z,99.90
2022-09-01T02:28:42.505Z,99.90
2022-09-01T02:31:12.024Z,99.90
2022-09-01T02:33:41.104Z,99.90
2022-09-01T02:36:13.862Z,99.90
2022-09-01T02:38:46.704Z,99.90
2022-09-01T02:41:21.755Z,99.90
2022-09-01T02:43:49.603Z,99.90
2022-09-01T02:46:17.511Z,99.90
2022-09-01T02:48:49.382Z,99.90
2022-09-01T02:51:19.540Z,99.90
2022-09-01T02:53:52.665Z,99.90
2022-09-01T02:56:24.997Z,99.90
2022-09-01T02:58:53.990Z,99.90
2022-09-01T03:01:24.807Z,99.90
2022-09-01T03:03:55.221Z,99.90
2022-09-01T03:06:24.222Z,99.90
2022-09-01T03:08:53.443Z,99.90
2022-09-01T03:11:23.755Z,99.90
2022-09-01T03:13:52.533Z,99.90
2022-09-01T03:16:20.474Z,99.90
2022-09-01T03:18:49.386Z,99.90
2022-09-01T03:21:17.663Z,99.90
2022-09-01T03:23:46.653Z,99.90
2022-09-01T03:26:18.593Z,99.90
2022-09-01T03:28:47.955Z,99.90
2022-09-01T03:31:16.871Z,99.90
2022-09-01T03:33:44.928Z,99.90
2022-09-01T03:36:19.241Z,99.90
2022-09-01T03:38:48.629Z,99.90
2022-09-01T03:41:18.487Z,99.90
2022-09-01T03:43:48.594Z,99.90
2022-09-01T03:46:21.495Z,99.90
2022-09-01T03:48:51.300Z,99.90
2022-09-01T03:51:20.948Z,99.90
2022-09-01T03:53:48.972Z,99.90
2022-09-01T03:56:16.847Z,99.90
2022-09-01T03:58:47.088Z,99.90
2022-09-01T04:01:17.053Z,99.90
2022-09-01T04:03:48.936Z,99.90
2022-09-01T04:06:21.098Z,99.90
2022-09-01T04:08:48.972Z,99.90
2022-09-01T04:11:23.521Z,99.90
2022-09-01T04:13:51.501Z,99.90
2022-09-01T04:16:40.815Z,99.90
2022-09-01T04:19:16.049Z,99.90
2022-09-01T04:21:44.849Z,99.90
2022-09-01T04:24:14.787Z,99.90
2022-09-01T04:26:46.459Z,99.90
2022-09-01T04:29:14.300Z,99.90
2022-09-01T04:31:43.498Z,99.90
2022-09-01T04:34:13.116Z,99.90
2022-09-01T04:36:43.554Z,99.90
2022-09-01T04:39:13.236Z,99.90
2022-09-01T04:41:46.230Z,99.90
2022-09-01T04:44:18.997Z,99.90
2022-09-01T04:46:50.772Z,99.90
2022-09-01T04:49:22.394Z,99.90
2022-09-01T04:51:54.207Z,99.90
2022-09-01T04:54:23.262Z,99.90
2022-09-01T04:56:52.711Z,99.90
2022-09-01T04:59:22.988Z,99.90
2022-09-01T05:01:55.558Z,99.90
2022-09-01T05:04:27.407Z,99.90
2022-09-01T05:06:59.614Z,99.90
2022-09-01T05:09:28.904Z,99.90
2022-09-01T05:11:58.289Z,99.90
2022-09-01T05:14:26.794Z,99.90
2022-09-01T05:17:00.236Z,99.90
2022-09-01T05:19:30.933Z,99.90
2022-09-01T05:21:59.828Z,99.90
2022-09-01T05:24:30.422Z,99.90
2022-09-01T05:27:00.521Z,99.90
2022-09-01T05:29:29.673Z,99.90
2022-09-01T05:31:59.943Z,99.90
2022-09-01T05:34:29.654Z,99.90
2022-09-01T05:36:59.792Z,99.90
2022-09-01T05:39:28.613Z,99.90
2022-09-01T05:41:57.222Z,99.90
2022-09-01T05:44:25.442Z,99.90
2022-09-01T05:46:55.794Z,99.90
2022-09-01T05:49:26.768Z,99.90
2022-09-01T05:51:58.900Z,99.90
2022-09-01T05:54:29.079Z,99.90
2022-09-01T05:57:08.189Z,99.90
2022-09-01T05:59:53.747Z,99.90
2022-09-01T06:02:22.674Z,99.90
2022-09-01T06:04:55.633Z,99.90
2022-09-01T06:07:26.544Z,99.90
2022-09-01T06:09:54.517Z,99.90
2022-09-01T06:12:23.711Z,99.90
2022-09-01T06:14:54.399Z,99.90
2022-09-01T06:17:25.209Z,99.90
2022-09-01T06:19:56.057Z,99.90
2022-09-01T06:22:24.930Z,99.90
2022-09-01T06:24:58.043Z,99.90
2022-09-01T06:27:30.069Z,99.90
2022-09-01T06:29:58.615Z,99.90
2022-09-01T06:32:27.222Z,99.90
2022-09-01T06:34:58.228Z,99.90
2022-09-01T06:37:26.799Z,99.90
2022-09-01T06:39:54.959Z,99.90
2022-09-01T06:42:23.497Z,99.90
2022-09-01T06:44:52.631Z,99.90
2022-09-01T06:47:20.463Z,99.90
2022-09-01T06:49:48.308Z,99.90
2022-09-01T06:52:18.122Z,99.90
2022-09-01T06:54:45.975Z,99.90
2022-09-01T07:00:07.418Z,99.90
2022-09-01T07:02:35.307Z,99.90
2022-09-01T07:05:03.635Z,99.90
2022-09-01T07:10:23.131Z,99.90
2022-09-01T07:13:07.073Z,99.90
2022-09-01T07:18:26.012Z,99.90
2022-09-01T07:21:38.760Z,99.90
2022-09-01T07:26:35.587Z,99.90
2022-09-01T07:29:06.050Z,99.90
2022-09-01T07:32:43.997Z,99.90
2022-09-01T07:34:42.165Z,99.90
2022-09-01T07:38:04.325Z,99.90
2022-09-01T07:43:12.935Z,99.90
2022-09-01T07:45:58.036Z,99.90
2022-09-01T07:48:36.717Z,99.90
2022-09-01T07:51:36.108Z,99.90
2022-09-01T07:54:05.416Z,99.90
2022-09-01T07:56:39.813Z,99.90
2022-09-01T07:59:09.458Z,99.90
2022-09-01T08:01:43.776Z,99.90
2022-09-01T08:04:11.674Z,99.90
2022-09-01T08:06:39.523Z,99.90
2022-09-01T08:09:11.790Z,99.90
2022-09-01T08:14:33.753Z,99.90
2022-09-01T08:17:16.804Z,99.90
2022-09-01T08:19:46.951Z,99.90
2022-09-01T08:22:15.345Z,99.90
2022-09-01T08:24:43.344Z,99.90
2022-09-01T08:27:12.486Z,99.90
2022-09-01T08:29:41.852Z,99.90
2022-09-01T08:32:11.285Z,99.90
2022-09-01T08:34:39.709Z,99.90
2022-09-01T08:37:07.581Z,99.90
2022-09-01T08:39:35.461Z,99.90
2022-09-01T08:42:13.217Z,99.90
2022-09-01T08:44:52.385Z,99.90
2022-09-01T08:47:35.529Z,99.90
2022-09-01T08:50:09.033Z,99.90
2022-09-01T08:52:40.204Z,99.90
2022-09-01T08:55:11.847Z,99.90
2022-09-01T08:57:41.961Z,99.90
2022-09-01T09:00:14.758Z,99.90
2022-09-01T09:02:54.567Z,99.90
2022-09-01T09:05:32.954Z,99.90
2022-09-01T09:08:18.005Z,99.90
2022-09-01T09:10:56.490Z,99.90
2022-09-01T09:13:31.871Z,99.90
2022-09-01T09:16:08.364Z,99.90
2022-09-01T09:18:54.860Z,99.90
2022-09-01T09:21:27.878Z,99.90
2022-09-01T09:24:01.354Z,99.90
2022-09-01T09:26:42.259Z,99.90
2022-09-01T09:29:10.275Z,99.90
2022-09-01T09:31:50.055Z,99.90
2022-09-01T09:34:29.920Z,99.90
2022-09-01T09:36:57.737Z,99.90
2022-09-01T09:39:25.571Z,99.90
2022-09-01T09:42:09.412Z,99.90
2022-09-01T09:44:44.143Z,99.90
2022-09-01T09:47:44.223Z,99.90
2022-09-01T09:50:25.503Z,99.90
2022-09-01T09:53:10.060Z,99.90
2022-09-01T09:55:38.181Z,99.90
2022-09-01T09:58:12.745Z,99.90
2022-09-01T10:00:41.092Z,99.90
2022-09-01T10:03:15.086Z,99.90
2022-09-01T10:05:45.088Z,99.90
2022-09-01T10:08:16.468Z,99.90
2022-09-01T10:10:57.288Z,99.90
2022-09-01T10:13:29.096Z,99.90
2022-09-01T10:16:05.541Z,99.90
2022-09-01T10:18:41.042Z,99.90
2022-09-01T10:21:14.413Z,99.90
2022-09-01T10:23:43.242Z,99.90
2022-09-01T10:26:16.714Z,99.90
2022-09-01T10:28:53.065Z,99.90
2022-09-01T10:31:22.541Z,99.90
2022-09-01T10:33:52.032Z,99.90
2022-09-01T10:36:24.371Z,99.90
2022-09-01T10:38:54.379Z,99.90
2022-09-01T10:41:53.252Z,99.90
2022-09-01T10:44:31.829Z,99.90
2022-09-01T10:47:02.386Z,99.90
2022-09-01T10:50:01.490Z,99.90
2022-09-01T10:53:06.265Z,99.90
2022-09-01T10:55:41.289Z,99.90
2022-09-01T11:01:46.920Z,99.90
2022-09-01T11:04:07.377Z,99.90
2022-09-01T11:07:13.950Z,99.90
2022-09-01T11:09:43.749Z,99.90
2022-09-01T11:12:40.462Z,99.90
2022-09-01T11:15:36.298Z,99.90
2022-09-01T11:18:09.451Z,99.90
2022-09-01T11:20:39.517Z,99.90
2022-09-01T11:23:12.155Z,99.90
2022-09-01T11:25:43.815Z,99.90
2022-09-01T11:28:44.122Z,99.90
2022-09-01T11:31:30.752Z,99.90
2022-09-01T11:34:20.517Z,99.90
2022-09-01T11:37:00.164Z,99.90
2022-09-01T11:39:49.692Z,99.90
2022-09-01T11:42:22.625Z,99.90
2022-09-01T11:45:00.248Z,99.90
2022-09-01T11:47:33.181Z,99.90
2022-09-01T11:50:03.215Z,99.90
2022-09-01T11:52:35.841Z,99.90
2022-09-01T11:55:04.839Z,99.90
2022-09-01T11:57:36.759Z,99.90
2022-09-01T12:00:09.042Z,99.90
2022-09-01T12:02:43.483Z,99.90
2022-09-01T12:05:26.968Z,99.90
2022-09-01T12:07:55.242Z,99.90
2022-09-01T12:10:31.486Z,99.90
2022-09-01T12:13:04.978Z,99.90
2022-09-01T12:15:40.978Z,99.90
2022-09-01T12:18:19.253Z,99.90
2022-09-01T12:23:23.722Z,99.90
2022-09-01T12:25:52.465Z,99.90
2022-09-01T12:28:20.325Z,99.90
2022-09-01T12:30:49.962Z,99.90
2022-09-01T12:33:23.961Z,99.90
2022-09-01T12:35:56.068Z,99.90
2022-09-01T12:38:31.607Z,99.90
2022-09-01T12:41:00.010Z,99.90
2022-09-01T12:43:37.228Z,99.90
2022-09-01T12:46:10.863Z,99.90
2022-09-01T12:48:40.751Z,99.90
2022-09-01T12:51:18.950Z,99.90
2022-09-01T12:53:54.126Z,99.90
2022-09-01T12:56:29.772Z,99.90
2022-09-01T12:59:09.623Z,99.90
2022-09-01T13:01:43.699Z,99.90
2022-09-01T13:04:25.764Z,99.90
2022-09-01T13:06:54.918Z,99.90
2022-09-01T13:09:23.067Z,99.90
2022-09-01T13:12:07.687Z,99.90
2022-09-01T13:14:35.881Z,99.90
2022-09-01T13:17:05.417Z,99.90
2022-09-01T13:19:42.109Z,99.90
2022-09-01T13:22:10.107Z,99.90
2022-09-01T13:24:39.678Z,99.90
2022-09-01T13:27:23.575Z,99.90
2022-09-01T13:29:51.964Z,99.90
2022-09-01T13:32:22.805Z,99.90
2022-09-01T13:34:53.133Z,99.90
2022-09-01T13:37:22.702Z,99.90
2022-09-01T13:39:50.692Z,99.90
2022-09-01T13:42:19.274Z,99.90
2022-09-01T13:44:49.621Z,99.90
2022-09-01T13:47:29.754Z,99.90
2022-09-01T13:50:11.153Z,99.90
2022-09-01T13:52:40.330Z,99.90
2022-09-01T13:55:11.071Z,99.90
2022-09-01T13:57:39.044Z,99.90
2022-09-01T14:00:10.666Z,99.90
2022-09-01T14:02:40.654Z,99.00
2022-09-01T14:05:09.574Z,97.20
2022-09-01T14:07:37.479Z,95.40
2022-09-01T14:10:07.604Z,94.40
2022-09-01T14:12:35.561Z,91.50
2022-09-01T14:15:13.705Z,90.80
2022-09-01T14:17:46.556Z,91.50
2022-09-01T14:20:20.958Z,91.50
2022-09-01T14:22:50.537Z,90.60
2022-09-01T14:25:20.600Z,90.00
2022-09-01T14:27:49.660Z,90.00
2022-09-01T14:30:19.921Z,88.50
2022-09-01T14:32:49.552Z,86.10
2022-09-01T14:35:19.092Z,83.70
2022-09-01T14:37:46.955Z,82.90
2022-09-01T14:40:18.190Z,78.90
2022-09-01T14:42:47.624Z,79.90
2022-09-01T14:45:18.410Z,77.40
2022-09-01T14:47:46.445Z,77.50
2022-09-01T14:50:21.628Z,77.20
2022-09-01T14:52:52.834Z,75.90
2022-09-01T14:55:21.067Z,75.10
2022-09-01T14:57:49.016Z,75.00
2022-09-01T15:00:17.426Z,76.20
2022-09-01T15:02:45.580Z,77.30
2022-09-01T15:05:15.888Z,76.90
2022-09-01T15:07:44.370Z,77.60
2022-09-01T15:10:15.948Z,78.20
2022-09-01T15:12:51.383Z,78.20
2022-09-01T15:15:19.856Z,77.00
2022-09-01T15:17:47.742Z,75.60
2022-09-01T15:20:34.612Z,75.60
2022-09-01T15:23:02.516Z,75.00
2022-09-01T15:25:30.431Z,74.70
2022-09-01T15:27:58.330Z,75.00
2022-09-01T15:30:26.298Z,75.70
2022-09-01T15:32:55.055Z,77.00
2022-09-01T15:35:25.007Z,77.00
2022-09-01T15:37:53.766Z,77.90
2022-09-01T15:40:21.837Z,78.10
2022-09-01T15:42:49.940Z,78.70
2022-09-01T15:45:20.950Z,77.50
2022-09-01T15:47:49.297Z,76.40
2022-09-01T15:50:21.378Z,74.90
2022-09-01T15:52:53.488Z,74.10
2022-09-01T15:55:23.672Z,75.20
2022-09-01T15:57:52.497Z,75.30
2022-09-01T16:00:20.770Z,76.30
2022-09-01T16:02:48.607Z,76.20
2022-09-01T16:05:17.805Z,75.80
2022-09-01T16:07:45.723Z,76.00
2022-09-01T16:10:15.003Z,77.40
2022-09-01T16:12:44.598Z,77.70
2022-09-01T16:15:14.608Z,78.30
2022-09-01T16:18:06.959Z,78.70
2022-09-01T16:20:38.365Z,78.00
2022-09-01T16:23:14.988Z,78.80
2022-09-01T16:25:49.071Z,79.10
2022-09-01T16:28:27.535Z,78.60
2022-09-01T16:31:00.491Z,79.20
2022-09-01T16:33:28.427Z,79.70
2022-09-01T16:36:17.147Z,79.70
2022-09-01T16:38:49.401Z,80.20
2022-09-01T16:41:39.642Z,80.40
2022-09-01T16:44:18.763Z,80.70
2022-09-01T16:46:57.011Z,81.00
2022-09-01T16:49:33.997Z,81.10
2022-09-01T16:52:07.965Z,81.50
2022-09-01T16:54:49.297Z,81.90
2022-09-01T16:57:26.174Z,82.40
2022-09-01T16:59:56.592Z,82.60
2022-09-01T17:02:38.386Z,83.30
2022-09-01T17:05:16.809Z,83.70
2022-09-01T17:07:52.053Z,83.80
2022-09-01T17:10:33.393Z,84.00
2022-09-01T17:13:17.218Z,83.90
2022-09-01T17:15:51.718Z,84.10
2022-09-01T17:18:25.836Z,83.70
2022-09-01T17:20:58.091Z,84.00
2022-09-01T17:23:29.670Z,84.30
2022-09-01T17:26:03.015Z,84.50
2022-09-01T17:28:36.332Z,84.90
2022-09-01T17:31:14.529Z,85.50
2022-09-01T17:33:56.276Z,85.60
2022-09-01T17:36:34.847Z,85.70
2022-09-01T17:39:14.194Z,86.40
2022-09-01T17:41:48.465Z,86.60
2022-09-01T17:44:26.490Z,87.00
2022-09-01T17:47:07.145Z,87.30
2022-09-01T17:49:44.578Z,87.70
2022-09-01T17:52:21.561Z,88.20
2022-09-01T17:54:58.909Z,88.60
2022-09-01T17:57:33.156Z,89.40
2022-09-01T18:00:07.640Z,90.00
2022-09-01T18:03:04.680Z,90.00
2022-09-01T18:05:40.116Z,90.10
2022-09-01T18:08:39.109Z,90.30
2022-09-01T18:11:11.395Z,90.40
2022-09-01T18:13:53.565Z,90.60
2022-09-01T18:16:27.874Z,90.60
2022-09-01T18:19:00.560Z,90.60
2022-09-01T18:21:33.501Z,90.80
2022-09-01T18:24:12.277Z,90.90
2022-09-01T18:26:42.437Z,91.10
2022-09-01T18:29:10.687Z,91.10
2022-09-01T18:32:06.359Z,91.40
2022-09-01T18:34:49.216Z,91.40
2022-09-01T18:37:26.867Z,91.70
2022-09-01T18:40:01.821Z,91.90
2022-09-01T18:42:36.393Z,91.90
2022-09-01T18:45:12.034Z,91.70
2022-09-01T18:47:49.119Z,91.70
2022-09-01T18:50:23.882Z,91.90
2022-09-01T18:53:14.910Z,91.80
2022-09-01T18:55:49.139Z,91.80
2022-09-01T18:58:30.825Z,91.80
2022-09-01T19:01:06.431Z,91.90
2022-09-01T19:03:42.920Z,91.90
2022-09-01T19:06:27.226Z,92.00
2022-09-01T19:09:16.656Z,92.20
2022-09-01T19:11:56.449Z,92.30
2022-09-01T19:14:33.981Z,92.40
2022-09-01T19:17:31.702Z,92.60
2022-09-01T19:20:04.141Z,92.50
2022-09-01T19:22:40.050Z,92.60
2022-09-01T19:25:28.497Z,92.70
2022-09-01T19:28:01.699Z,92.80
2022-09-01T19:30:29.766Z,92.80
2022-09-01T19:33:00.062Z,92.70
2022-09-01T19:35:34.236Z,92.80
2022-09-01T19:38:03.894Z,92.80
2022-09-01T19:43:13.505Z,93.10
2022-09-01T19:45:55.995Z,93.20
2022-09-01T19:48:28.826Z,93.30
2022-09-01T19:51:03.708Z,93.30
2022-09-01T19:53:41.233Z,93.50
2022-09-01T19:56:14.014Z,93.30
2022-09-01T19:58:48.923Z,93.50
2022-09-01T20:01:21.885Z,93.40
2022-09-01T20:03:54.959Z,93.40
2022-09-01T20:06:33.379Z,93.20
2022-09-01T20:09:08.453Z,93.30
2022-09-01T20:11:46.784Z,93.40
2022-09-01T20:14:35.930Z,93.40
2022-09-01T20:17:06.166Z,93.30
2022-09-01T20:19:42.077Z,93.50
2022-09-01T20:22:24.586Z,93.50
2022-09-01T20:25:08.411Z,93.50
2022-09-01T20:27:43.556Z,93.60
2022-09-01T20:30:13.856Z,93.90
2022-09-01T20:35:24.408Z,94.40
2022-09-01T20:38:00.381Z,94.50
2022-09-01T20:40:32.572Z,94.50
2022-09-01T20:43:08.255Z,94.40
2022-09-01T20:45:36.220Z,94.30
2022-09-01T20:48:07.528Z,94.60
2022-09-01T20:50:43.165Z,94.60
2022-09-01T20:53:36.303Z,94.50
2022-09-01T20:56:09.011Z,94.60
2022-09-01T20:58:41.135Z,94.50
2022-09-01T21:01:17.538Z,94.50
2022-09-01T21:04:02.933Z,94.50
2022-09-01T21:06:45.745Z,94.60
2022-09-01T21:09:20.392Z,94.60
2022-09-01T21:11:55.618Z,94.90
2022-09-01T21:14:35.380Z,95.00
2022-09-01T21:17:10.698Z,95.10
2022-09-01T21:19:48.782Z,95.10
2022-09-01T21:22:21.918Z,95.20
2022-09-01T21:24:51.932Z,95.10
2022-09-01T21:27:22.642Z,95.30
2022-09-01T21:29:56.411Z,95.30
2022-09-01T21:32:24.406Z,95.30
2022-09-01T21:34:53.103Z,95.40
2022-09-01T21:37:23.602Z,95.40
2022-09-01T21:39:54.054Z,95.50
2022-09-01T21:42:25.102Z,95.60
2022-09-01T21:44:54.292Z,95.60
2022-09-01T21:47:22.923Z,95.70
2022-09-01T21:49:50.832Z,95.70
2022-09-01T21:52:18.836Z,95.80
2022-09-01T21:54:46.860Z,95.90
2022-09-01T21:57:16.234Z,95.80
2022-09-01T21:59:44.076Z,95.90
2022-09-01T22:02:11.924Z,96.00
2022-09-01T22:04:40.123Z,96.00
2022-09-01T22:07:18.561Z,96.00
2022-09-01T22:09:46.975Z,96.10
2022-09-01T22:12:16.121Z,96.40
2022-09-01T22:14:43.941Z,96.20
2022-09-01T22:17:11.777Z,96.30
2022-09-01T22:19:39.702Z,96.30
2022-09-01T22:22:08.593Z,96.50
2022-09-01T22:24:37.648Z,96.40
2022-09-01T22:27:05.588Z,96.30
2022-09-01T22:29:34.755Z,96.50
2022-09-01T22:32:02.768Z,96.50
2022-09-01T22:34:33.064Z,96.60
2022-09-01T22:37:01.114Z,96.60
2022-09-01T22:39:29.092Z,96.60
2022-09-01T22:41:56.961Z,96.80
2022-09-01T22:44:24.819Z,97.00
2022-09-01T22:46:53.981Z,97.00
2022-09-01T22:49:21.836Z,96.90
2022-09-01T22:51:50.213Z,96.90
2022-09-01T22:54:18.230Z,97.00
2022-09-01T22:56:46.197Z,97.00
2022-09-01T22:59:15.744Z,97.10
2022-09-01T23:01:45.826Z,97.00
2022-09-01T23:04:17.233Z,97.10
2022-09-01T23:06:49.450Z,97.20
2022-09-01T23:09:17.785Z,97.20
2022-09-01T23:11:45.776Z,97.30
2022-09-01T23:14:13.768Z,97.30
2022-09-01T23:16:42.102Z,97.30
2022-09-01T23:19:09.957Z,97.40
2022-09-01T23:21:39.961Z,97.40
2022-09-01T23:24:08.121Z,97.60
2022-09-01T23:26:36.553Z,97.60
2022-09-01T23:29:05.432Z,97.60
2022-09-01T23:31:35.872Z,97.70
2022-09-01T23:34:04.706Z,97.60
2022-09-01T23:36:32.554Z,97.80
2022-09-01T23:39:02.305Z,97.70
2022-09-01T23:41:32.708Z,97.80
2022-09-01T23:44:03.415Z,97.80
2022-09-01T23:46:34.041Z,97.80
2022-09-01T23:49:02.571Z,97.90
2022-09-01T23:51:30.975Z,97.90
2022-09-01T23:53:59.107Z,98.00
2022-09-01T23:56:30.375Z,98.00
2022-09-01T23:58:58.911Z,98.00
